Private Wetterstation Wechselburg
Wetterdaten: Freitag, 03.02.2017
Datum Zeit Temp. +2m Bodentemp. Temp.+5cm Temp. Wind Windchill X Diff Temp. Feuchte +2m Feuchte +5cm Sonnenschein Luftdruck Regen Wind Richtung Richtung Sonnenschein Taupunkt Windchill Windben
03.02.2017 00:00 -0,8 C 1,3 C 0,3 C 0,6 C 0,6 C 1,4 C 89 % 76 % 0 % 1010,9 hPa 0,0 l/m 0,0 km/h (0 Bft) SW 225 0 min -2,4 C 0,6 C 0,0 km/h (0 Bft)
03.02.2017 00:05 -0,7 C 1,3 C 0,3 C 0,6 C 0,6 C 1,3 C 89 % 76 % 0 % 1010,9 hPa 0,0 l/m 0,0 km/h (0 Bft) SW 225 0 min -2,3 C 0,6 C 0,0 km/h (0 Bft)
03.02.2017 00:10 -0,8 C 1,3 C 0,3 C 0,6 C 0,6 C 1,4 C 89 % 76 % 0 % 1010,9 hPa 0,0 l/m 0,0 km/h (0 Bft) SW 225 0 min -2,4 C 0,6 C 0,0 km/h (0 Bft)
03.02.2017 00:15 -0,8 C 1,3 C 0,3 C 0,6 C 0,6 C 1,4 C 89 % 76 % 0 % 1010,9 hPa 0,0 l/m 0,0 km/h (0 Bft) SW 225 0 min -2,4 C 0,6 C 0,0 km/h (0 Bft)
03.02.2017 00:20 -0,8 C 1,3 C 0,3 C 0,7 C 0,7 C 1,5 C 89 % 76 % 0 % 1010,9 hPa 0,0 l/m 0,0 km/h (0 Bft) SW 225 0 min -2,4 C 0,7 C 0,0 km/h (0 Bft)
03.02.2017 00:25 -0,7 C 1,3 C 0,3 C 0,7 C 0,7 C 1,4 C 89 % 76 % 0 % 1010,9 hPa 0,0 l/m 0,0 km/h (0 Bft) SW 225 0 min -2,3 C 0,7 C 0,0 km/h (0 Bft)
03.02.2017 00:30 -0,7 C 1,3 C 0,4 C 0,7 C 0,7 C 1,4 C 89 % 76 % 0 % 1010,9 hPa 0,0 l/m 0,0 km/h (0 Bft) SW 225 0 min -2,3 C 0,7 C 0,0 km/h (0 Bft)
03.02.2017 00:35 -0,6 C 1,3 C 0,4 C 0,8 C 0,8 C 1,4 C 89 % 76 % 0 % 1010,9 hPa 0,0 l/m 0,0 km/h (0 Bft) SW 225 0 min -2,2 C 0,8 C 0,0 km/h (0 Bft)
03.02.2017 00:40 -0,5 C 1,3 C 0,4 C 0,9 C 0,9 C 1,4 C 89 % 76 % 0 % 1010,6 hPa 0,0 l/m 0,0 km/h (0 Bft) SW 225 0 min -2,1 C 0,9 C 0,0 km/h (0 Bft)
03.02.2017 00:45 -0,5 C 1,3 C 0,5 C 1,0 C 1,0 C 1,5 C 89 % 76 % 0 % 1010,6 hPa 0,0 l/m 0,0 km/h (0 Bft) SW 225 0 min -2,1 C 1,0 C 0,0 km/h (0 Bft)
03.02.2017 00:50 -0,5 C 1,3 C 0,4 C 1,1 C 1,1 C 1,6 C 89 % 76 % 0 % 1010,6 hPa 0,0 l/m 0,3 km/h (0 Bft) SW 225 0 min -2,1 C 1,1 C 0,0 km/h (0 Bft)
03.02.2017 00:55 -0,5 C 1,3 C 0,5 C 1,1 C 1,1 C 1,6 C 89 % 76 % 0 % 1010,6 hPa 0,0 l/m 0,3 km/h (0 Bft) SW 225 0 min -2,1 C 1,1 C 0,0 km/h (0 Bft)
03.02.2017 01:00 -0,3 C 1,3 C 0,4 C 1,0 C 1,0 C 1,3 C 89 % 76 % 0 % 1010,9 hPa 0,0 l/m 0,3 km/h (0 Bft) O-NO 67 0 min -1,9 C 1,0 C 1,6 km/h (1 Bft)
03.02.2017 01:05 -0,5 C 1,3 C 0,4 C 1,0 C 1,0 C 1,5 C 89 % 76 % 0 % 1010,9 hPa 0,0 l/m 0,3 km/h (0 Bft) O 90 0 min -2,1 C 1,0 C 0,0 km/h (0 Bft)
03.02.2017 01:10 -0,5 C 1,3 C 0,4 C 1,1 C 1,1 C 1,6 C 89 % 76 % 0 % 1010,9 hPa 0,0 l/m 0,2 km/h (0 Bft) O 90 0 min -2,1 C 1,1 C 0,0 km/h (0 Bft)
03.02.2017 01:15 -0,4 C 1,3 C 0,5 C 1,3 C 1,3 C 1,7 C 89 % 76 % 0 % 1010,9 hPa 0,0 l/m 0,0 km/h (0 Bft) O 90 0 min -2,0 C 1,3 C 0,0 km/h (0 Bft)
03.02.2017 01:20 -0,4 C 1,3 C 0,5 C 1,2 C 1,2 C 1,6 C 89 % 76 % 0 % 1010,4 hPa 0,0 l/m 0,0 km/h (0 Bft) W 270 0 min -2,0 C 1,2 C 0,0 km/h (0 Bft)
03.02.2017 01:25 -0,4 C 1,3 C 0,5 C 1,1 C 1,1 C 1,5 C 89 % 76 % 0 % 1010,4 hPa 0,0 l/m 0,0 km/h (0 Bft) W-SW 247 0 min -2,0 C 1,1 C 0,0 km/h (0 Bft)
03.02.2017 01:30 -0,3 C 1,3 C 0,5 C 1,0 C 1,0 C 1,3 C 89 % 76 % 0 % 1010,4 hPa 0,0 l/m 0,0 km/h (0 Bft) W 270 0 min -1,9 C 1,0 C 0,0 km/h (0 Bft)
03.02.2017 01:35 -0,5 C 1,3 C 0,5 C 1,0 C 1,0 C 1,5 C 89 % 76 % 0 % 1010,4 hPa 0,0 l/m 0,0 km/h (0 Bft) SW 225 0 min -2,1 C 1,0 C 0,0 km/h (0 Bft)
03.02.2017 01:40 -0,5 C 1,3 C 0,4 C 0,9 C 0,9 C 1,4 C 89 % 76 % 0 % 1010,4 hPa 0,0 l/m 0,0 km/h (0 Bft) O 90 0 min -2,1 C 0,9 C 0,0 km/h (0 Bft)
03.02.2017 01:45 -0,5 C 1,3 C 0,5 C 0,8 C 0,8 C 1,3 C 89 % 76 % 0 % 1010,4 hPa 0,0 l/m 0,0 km/h (0 Bft) O-NO 67 0 min -2,1 C 0,8 C 0,0 km/h (0 Bft)
03.02.2017 01:50 -0,3 C 1,3 C 0,5 C 0,9 C 0,9 C 1,2 C 89 % 76 % 0 % 1010,4 hPa 0,0 l/m 0,0 km/h (0 Bft) O-NO 67 0 min -1,9 C 0,9 C 0,0 km/h (0 Bft)
03.02.2017 01:55 -0,3 C 1,3 C 0,5 C 1,0 C 1,0 C 1,3 C 89 % 76 % 0 % 1010,4 hPa 0,0 l/m 0,0 km/h (0 Bft) SW 225 0 min -1,9 C 1,0 C 0,0 km/h (0 Bft)
03.02.2017 02:00 -0,4 C 1,3 C 0,6 C 1,1 C 1,1 C 1,5 C 89 % 76 % 0 % 1010,7 hPa 0,0 l/m 0,0 km/h (0 Bft) SW 225 0 min -2,0 C 1,1 C 0,0 km/h (0 Bft)
03.02.2017 02:05 -0,3 C 1,3 C 0,7 C 1,1 C 1,1 C 1,4 C 89 % 76 % 0 % 1010,7 hPa 0,0 l/m 0,0 km/h (0 Bft) SW 225 0 min -1,9 C 1,1 C 0,0 km/h (0 Bft)
03.02.2017 02:10 -0,3 C 1,3 C 0,7 C 1,1 C 1,1 C 1,4 C 89 % 76 % 0 % 1010,7 hPa 0,0 l/m 0,0 km/h (0 Bft) SW 225 0 min -1,9 C 1,1 C 0,0 km/h (0 Bft)
03.02.2017 02:15 -0,1 C 1,3 C 0,7 C 1,2 C 1,2 C 1,3 C 89 % 76 % 0 % 1010,7 hPa 0,0 l/m 0,0 km/h (0 Bft) SW 225 0 min -1,7 C 1,2 C 0,0 km/h (0 Bft)
03.02.2017 02:20 -0,1 C 1,3 C 0,7 C 1,3 C 1,3 C 1,4 C 89 % 76 % 0 % 1010,5 hPa 0,0 l/m 0,0 km/h (0 Bft) SW 225 0 min -1,7 C 1,3 C 0,0 km/h (0 Bft)
03.02.2017 02:25 -0,1 C 1,3 C 0,7 C 1,5 C 1,5 C 1,6 C 89 % 76 % 0 % 1010,5 hPa 0,0 l/m 0,0 km/h (0 Bft) O 90 0 min -1,7 C 1,5 C 0,0 km/h (0 Bft)
03.02.2017 02:30 -0,1 C 1,3 C 0,6 C 1,6 C 1,6 C 1,7 C 89 % 76 % 0 % 1010,5 hPa 0,0 l/m 0,0 km/h (0 Bft) O-NO 67 0 min -1,7 C 1,6 C 0,0 km/h (0 Bft)
03.02.2017 02:35 -0,1 C 1,3 C 0,7 C 1,7 C 1,7 C 1,8 C 89 % 76 % 0 % 1010,5 hPa 0,0 l/m 0,0 km/h (0 Bft) W-SW 247 0 min -1,7 C 1,7 C 1,8 km/h (1 Bft)
03.02.2017 02:40 -0,1 C 1,4 C 0,7 C 1,6 C 1,6 C 1,7 C 89 % 76 % 0 % 1010,8 hPa 0,0 l/m 0,5 km/h (0 Bft) W-SW 247 0 min -1,7 C 1,6 C 0,0 km/h (0 Bft)
03.02.2017 02:45 -0,1 C 1,3 C 0,5 C 1,3 C 1,3 C 1,4 C 89 % 76 % 0 % 1010,8 hPa 0,0 l/m 0,5 km/h (0 Bft) W-SW 247 0 min -1,7 C 1,3 C 0,0 km/h (0 Bft)
03.02.2017 02:50 -0,3 C 1,3 C 0,6 C 1,3 C 1,3 C 1,6 C 89 % 76 % 0 % 1010,8 hPa 0,0 l/m 0,0 km/h (0 Bft) W-SW 247 0 min -1,9 C 1,3 C 0,0 km/h (0 Bft)
03.02.2017 02:55 -0,1 C 1,3 C 0,7 C 1,2 C 1,2 C 1,3 C 89 % 76 % 0 % 1010,8 hPa 0,0 l/m 0,0 km/h (0 Bft) O-NO 67 0 min -1,7 C 1,2 C 0,0 km/h (0 Bft)
03.02.2017 03:00 -0,1 C 1,3 C 0,7 C 1,2 C 1,2 C 1,3 C 89 % 76 % 0 % 1010,0 hPa 0,0 l/m 0,0 km/h (0 Bft) O-NO 67 0 min -1,7 C 1,2 C 0,0 km/h (0 Bft)
03.02.2017 03:05 -0,1 C 1,4 C 0,7 C 1,3 C 1,3 C 1,4 C 89 % 76 % 0 % 1010,0 hPa 0,0 l/m 0,0 km/h (0 Bft) O-NO 67 0 min -1,7 C 1,3 C 0,0 km/h (0 Bft)
03.02.2017 03:10 -0,1 C 1,4 C 0,7 C 1,3 C 1,3 C 1,4 C 89 % 76 % 0 % 1010,0 hPa 0,0 l/m 0,0 km/h (0 Bft) O-NO 67 0 min -1,7 C 1,3 C 0,0 km/h (0 Bft)
03.02.2017 03:15 -0,1 C 1,3 C 0,7 C 1,2 C 1,2 C 1,3 C 89 % 76 % 0 % 1010,0 hPa 0,0 l/m 0,0 km/h (0 Bft) O-NO 67 0 min -1,7 C 1,2 C 0,0 km/h (0 Bft)
03.02.2017 03:20 -0,1 C 1,3 C 0,6 C 1,2 C 1,2 C 1,3 C 89 % 76 % 0 % 1009,8 hPa 0,0 l/m 0,0 km/h (0 Bft) O-NO 67 0 min -1,7 C 1,2 C 0,0 km/h (0 Bft)
03.02.2017 03:25 -0,1 C 1,3 C 0,6 C 1,3 C 1,3 C 1,4 C 89 % 77 % 0 % 1009,8 hPa 0,0 l/m 0,0 km/h (0 Bft) O-NO 67 0 min -1,7 C 1,3 C 0,0 km/h (0 Bft)
03.02.2017 03:30 -0,1 C 1,3 C 0,6 C 1,3 C 1,3 C 1,4 C 89 % 77 % 0 % 1009,8 hPa 0,0 l/m 0,0 km/h (0 Bft) O-NO 67 0 min -1,7 C 1,3 C 0,0 km/h (0 Bft)
03.02.2017 03:35 -0,1 C 1,3 C 0,5 C 1,3 C 1,3 C 1,4 C 89 % 77 % 0 % 1009,8 hPa 0,0 l/m 0,0 km/h (0 Bft) O-NO 67 0 min -1,7 C 1,3 C 0,0 km/h (0 Bft)
03.02.2017 03:40 -0,1 C 1,3 C 0,7 C 1,2 C 1,2 C 1,3 C 89 % 77 % 0 % 1009,2 hPa 0,0 l/m 0,0 km/h (0 Bft) O-NO 67 0 min -1,7 C 1,2 C 0,0 km/h (0 Bft)
03.02.2017 03:45 -0,1 C 1,3 C 0,6 C 1,2 C 1,2 C 1,3 C 89 % 77 % 0 % 1009,2 hPa 0,0 l/m 0,0 km/h (0 Bft) O-NO 67 0 min -1,7 C 1,2 C 0,0 km/h (0 Bft)
03.02.2017 03:50 -0,1 C 1,3 C 0,6 C 1,2 C 1,2 C 1,3 C 89 % 77 % 0 % 1009,2 hPa 0,0 l/m 0,0 km/h (0 Bft) O-NO 67 0 min -1,7 C 1,2 C 0,0 km/h (0 Bft)
03.02.2017 03:55 -0,1 C 1,3 C 0,6 C 1,3 C 1,3 C 1,4 C 89 % 77 % 0 % 1009,2 hPa 0,0 l/m 0,0 km/h (0 Bft) O-NO 67 0 min -1,7 C 1,3 C 0,0 km/h (0 Bft)
03.02.2017 04:00 -0,1 C 1,3 C 0,6 C 1,3 C 1,3 C 1,4 C 89 % 77 % 0 % 1009,4 hPa 0,0 l/m 0,0 km/h (0 Bft) NW 315 0 min -1,7 C 1,3 C 0,0 km/h (0 Bft)
03.02.2017 04:05 -0,1 C 1,4 C 0,7 C 1,3 C 1,3 C 1,4 C 89 % 77 % 0 % 1009,4 hPa 0,0 l/m 0,0 km/h (0 Bft) NW 315 0 min -1,7 C 1,3 C 0,0 km/h (0 Bft)
03.02.2017 04:10 -0,1 C 1,4 C 0,6 C 1,3 C 1,3 C 1,4 C 89 % 77 % 0 % 1009,4 hPa 0,0 l/m 0,0 km/h (0 Bft) SW 225 0 min -1,7 C 1,3 C 0,0 km/h (0 Bft)
03.02.2017 04:15 -0,1 C 1,4 C 0,6 C 1,3 C 1,3 C 1,4 C 89 % 77 % 0 % 1009,4 hPa 0,0 l/m 0,0 km/h (0 Bft) W-SW 247 0 min -1,7 C 1,3 C 0,0 km/h (0 Bft)
03.02.2017 04:20 -0,1 C 1,4 C 0,6 C 1,3 C 1,3 C 1,4 C 89 % 77 % 0 % 1008,9 hPa 0,0 l/m 0,3 km/h (0 Bft) W 270 0 min -1,7 C 1,3 C 0,0 km/h (0 Bft)
03.02.2017 04:25 -0,1 C 1,4 C 0,7 C 1,2 C 1,2 C 1,3 C 89 % 77 % 0 % 1008,9 hPa 0,0 l/m 0,5 km/h (0 Bft) W-SW 247 0 min -1,7 C 1,2 C 2,1 km/h (1 Bft)
03.02.2017 04:30 -0,1 C 1,4 C 0,5 C 1,1 C 1,1 C 1,2 C 89 % 77 % 0 % 1008,9 hPa 0,0 l/m 0,3 km/h (0 Bft) W-NW 292 0 min -1,7 C 1,1 C 0,0 km/h (0 Bft)
03.02.2017 04:35 -0,1 C 1,4 C 0,5 C 1,0 C 1,0 C 1,1 C 89 % 77 % 0 % 1008,9 hPa 0,0 l/m 0,3 km/h (0 Bft) W-NW 292 0 min -1,7 C 1,0 C 0,0 km/h (0 Bft)
03.02.2017 04:40 -0,2 C 1,4 C 0,5 C 0,9 C 0,9 C 1,1 C 89 % 77 % 0 % 1009,1 hPa 0,0 l/m 0,0 km/h (0 Bft) W-NW 292 0 min -1,8 C 0,9 C 0,0 km/h (0 Bft)
03.02.2017 04:45 -0,1 C 1,4 C 0,5 C 0,9 C 0,9 C 1,0 C 89 % 77 % 0 % 1009,1 hPa 0,0 l/m 0,0 km/h (0 Bft) W-NW 292 0 min -1,7 C 0,9 C 0,0 km/h (0 Bft)
03.02.2017 04:50 -0,1 C 1,3 C 0,5 C 0,9 C 0,9 C 1,0 C 89 % 77 % 0 % 1009,1 hPa 0,0 l/m 0,0 km/h (0 Bft) W-NW 292 0 min -1,7 C 0,9 C 0,0 km/h (0 Bft)
03.02.2017 04:55 -0,3 C 1,4 C 0,5 C 1,0 C 1,0 C 1,3 C 89 % 77 % 0 % 1009,1 hPa 0,0 l/m 0,0 km/h (0 Bft) O 90 0 min -1,9 C 1,0 C 0,0 km/h (0 Bft)
03.02.2017 05:00 -0,1 C 1,4 C 0,5 C 1,1 C 1,1 C 1,2 C 89 % 77 % 0 % 1009,0 hPa 0,0 l/m 0,0 km/h (0 Bft) O 90 0 min -1,7 C 1,1 C 0,0 km/h (0 Bft)
03.02.2017 05:05 -0,1 C 1,4 C 0,5 C 1,1 C 1,1 C 1,2 C 89 % 77 % 0 % 1009,0 hPa 0,0 l/m 0,0 km/h (0 Bft) O 90 0 min -1,7 C 1,1 C 0,0 km/h (0 Bft)
03.02.2017 05:10 -0,1 C 1,4 C 0,5 C 1,2 C 1,2 C 1,3 C 89 % 77 % 0 % 1009,0 hPa 0,0 l/m 0,0 km/h (0 Bft) O 90 0 min -1,7 C 1,2 C 0,0 km/h (0 Bft)
03.02.2017 05:15 -0,1 C 1,4 C 0,5 C 1,2 C 1,2 C 1,3 C 89 % 77 % 0 % 1009,0 hPa 0,0 l/m 0,0 km/h (0 Bft) O 90 0 min -1,7 C 1,2 C 0,0 km/h (0 Bft)
03.02.2017 05:20 -0,1 C 1,4 C 0,5 C 1,2 C 1,2 C 1,3 C 89 % 77 % 0 % 1008,8 hPa 0,0 l/m 0,0 km/h (0 Bft) O 90 0 min -1,7 C 1,2 C 0,0 km/h (0 Bft)
03.02.2017 05:25 -0,2 C 1,3 C 0,4 C 1,2 C 1,2 C 1,4 C 89 % 77 % 0 % 1008,8 hPa 0,0 l/m 0,0 km/h (0 Bft) O 90 0 min -1,8 C 1,2 C 0,0 km/h (0 Bft)
03.02.2017 05:30 -0,1 C 1,3 C 0,4 C 1,1 C 1,1 C 1,2 C 89 % 77 % 0 % 1008,8 hPa 0,0 l/m 0,0 km/h (0 Bft) O 90 0 min -1,7 C 1,1 C 0,0 km/h (0 Bft)
03.02.2017 05:35 -0,1 C 1,3 C 0,4 C 1,2 C 1,2 C 1,3 C 89 % 77 % 0 % 1008,8 hPa 0,0 l/m 0,0 km/h (0 Bft) O 90 0 min -1,7 C 1,2 C 0,0 km/h (0 Bft)
03.02.2017 05:40 -0,1 C 1,3 C 0,4 C 1,1 C 1,1 C 1,2 C 89 % 77 % 0 % 1008,8 hPa 0,0 l/m 0,0 km/h (0 Bft) O 90 0 min -1,7 C 1,1 C 0,0 km/h (0 Bft)
03.02.2017 05:45 -0,1 C 1,3 C 0,4 C 1,0 C 1,0 C 1,1 C 89 % 77 % 0 % 1008,8 hPa 0,0 l/m 0,0 km/h (0 Bft) O 90 0 min -1,7 C 1,0 C 0,0 km/h (0 Bft)
03.02.2017 05:50 -0,1 C 1,3 C 0,4 C 1,0 C 1,0 C 1,1 C 89 % 77 % 0 % 1008,8 hPa 0,0 l/m 0,0 km/h (0 Bft) O 90 0 min -1,7 C 1,0 C 0,0 km/h (0 Bft)
03.02.2017 05:55 -0,1 C 1,3 C 0,3 C 0,9 C 0,9 C 1,0 C 89 % 77 % 0 % 1008,8 hPa 0,0 l/m 0,0 km/h (0 Bft) O 90 0 min -1,7 C 0,9 C 0,0 km/h (0 Bft)
03.02.2017 06:00 -0,1 C 1,3 C 0,3 C 0,8 C 0,8 C 0,9 C 89 % 77 % 0 % 1008,6 hPa 0,0 l/m 0,0 km/h (0 Bft) O 90 0 min -1,7 C 0,8 C 0,0 km/h (0 Bft)
03.02.2017 06:05 -0,1 C 1,3 C 0,4 C 0,9 C 0,9 C 1,0 C 89 % 77 % 0 % 1008,6 hPa 0,0 l/m 0,0 km/h (0 Bft) O-SO 112 0 min -1,7 C 0,9 C 0,0 km/h (0 Bft)
03.02.2017 06:10 -0,1 C 1,3 C 0,4 C 0,9 C 0,9 C 1,0 C 89 % 77 % 0 % 1008,6 hPa 0,0 l/m 0,3 km/h (0 Bft) W-SW 247 0 min -1,7 C 0,9 C 0,0 km/h (0 Bft)
03.02.2017 06:15 -0,1 C 1,3 C 0,4 C 0,7 C 0,7 C 0,8 C 89 % 77 % 0 % 1008,6 hPa 0,0 l/m 0,5 km/h (0 Bft) NO 45 0 min -1,7 C 0,7 C 0,0 km/h (0 Bft)
03.02.2017 06:20 -0,3 C 1,3 C 0,3 C 0,6 C 0,6 C 0,9 C 89 % 77 % 0 % 1008,6 hPa 0,0 l/m 0,2 km/h (0 Bft) NO 45 0 min -1,9 C 0,6 C 0,0 km/h (0 Bft)
03.02.2017 06:25 -0,3 C 1,3 C 0,3 C 0,5 C 0,5 C 0,8 C 89 % 77 % 0 % 1008,6 hPa 0,0 l/m 0,0 km/h (0 Bft) NO 45 0 min -1,9 C 0,5 C 0,0 km/h (0 Bft)
03.02.2017 06:30 -0,3 C 1,3 C 0,2 C 0,4 C 0,4 C 0,7 C 89 % 77 % 0 % 1008,6 hPa 0,0 l/m 0,0 km/h (0 Bft) NO 45 0 min -1,9 C 0,4 C 0,0 km/h (0 Bft)
03.02.2017 06:35 -0,5 C 1,3 C 0,2 C 0,4 C 0,4 C 0,9 C 89 % 77 % 0 % 1008,6 hPa 0,0 l/m 0,0 km/h (0 Bft) NO 45 0 min -2,1 C 0,4 C 0,0 km/h (0 Bft)
03.02.2017 06:45 -0,5 C 1,3 C 0,3 C 0,5 C 0,5 C 1,0 C 89 % 77 % 0 % 1008,7 hPa 0,0 l/m 0,0 km/h (0 Bft) NO 45 0 min -2,1 C 0,5 C 0,0 km/h (0 Bft)
03.02.2017 06:50 -0,5 C 1,3 C 0,2 C 0,6 C 0,6 C 1,1 C 89 % 77 % 0 % 1008,7 hPa 0,0 l/m 0,0 km/h (0 Bft) NO 45 0 min -2,1 C 0,6 C 0,0 km/h (0 Bft)
03.02.2017 06:55 -0,5 C 1,3 C 0,3 C 0,6 C 0,6 C 1,1 C 89 % 77 % 0 % 1008,7 hPa 0,0 l/m 0,0 km/h (0 Bft) NO 45 0 min -2,1 C 0,6 C 0,0 km/h (0 Bft)
03.02.2017 07:00 -0,3 C 1,3 C 0,3 C 0,6 C 0,6 C 0,9 C 89 % 77 % 0 % 1008,4 hPa 0,0 l/m 0,0 km/h (0 Bft) NW 315 0 min -1,9 C 0,6 C 0,0 km/h (0 Bft)
03.02.2017 07:05 -0,3 C 1,3 C 0,2 C 0,6 C 0,6 C 0,9 C 89 % 77 % 0 % 1008,4 hPa 0,0 l/m 0,0 km/h (0 Bft) NW 315 0 min -1,9 C 0,6 C 0,0 km/h (0 Bft)
03.02.2017 07:10 -0,5 C 1,3 C 0,3 C 0,6 C 0,6 C 1,1 C 89 % 77 % 0 % 1008,4 hPa 0,0 l/m 0,0 km/h (0 Bft) NW 315 0 min -2,1 C 0,6 C 0,0 km/h (0 Bft)
03.02.2017 07:15 -0,5 C 1,3 C 0,3 C 0,6 C 0,6 C 1,1 C 89 % 77 % 0 % 1008,4 hPa 0,0 l/m 0,0 km/h (0 Bft) NW 315 0 min -2,1 C 0,6 C 0,0 km/h (0 Bft)
03.02.2017 07:20 -0,5 C 1,3 C 0,2 C 0,5 C 0,5 C 1,0 C 89 % 77 % 0 % 1008,4 hPa 0,0 l/m 0,0 km/h (0 Bft) NW 315 0 min -2,1 C 0,5 C 0,0 km/h (0 Bft)
03.02.2017 07:25 -0,5 C 1,3 C 0,1 C 0,5 C 0,5 C 1,0 C 89 % 77 % 0 % 1008,4 hPa 0,0 l/m 0,0 km/h (0 Bft) NW 315 0 min -2,1 C 0,5 C 0,0 km/h (0 Bft)
03.02.2017 07:30 -0,5 C 1,3 C 0,1 C 0,5 C 0,5 C 1,0 C 89 % 77 % 0 % 1008,4 hPa 0,0 l/m 0,0 km/h (0 Bft) NW 315 0 min -2,1 C 0,5 C 0,0 km/h (0 Bft)
03.02.2017 07:35 -0,5 C 1,3 C 0,0 C 0,3 C 0,3 C 0,8 C 89 % 77 % 0 % 1008,4 hPa 0,0 l/m 0,0 km/h (0 Bft) NW 315 0 min -2,1 C 0,3 C 0,0 km/h (0 Bft)
03.02.2017 07:40 -0,5 C 1,3 C 0,0 C 0,2 C 0,2 C 0,7 C 89 % 78 % 0 % 1008,4 hPa 0,0 l/m 0,0 km/h (0 Bft) NW 315 0 min -2,1 C 0,2 C 0,0 km/h (0 Bft)
03.02.2017 07:45 -0,7 C 1,3 C 0,0 C 0,3 C 0,3 C 1,0 C 89 % 78 % 0 % 1008,4 hPa 0,0 l/m 0,0 km/h (0 Bft) NO 45 0 min -2,3 C 0,3 C 0,0 km/h (0 Bft)
03.02.2017 07:50 -0,5 C 1,3 C 0,1 C 0,4 C 0,4 C 0,9 C 89 % 78 % 0 % 1008,4 hPa 0,0 l/m 0,0 km/h (0 Bft) NO 45 0 min -2,1 C 0,4 C 0,0 km/h (0 Bft)
03.02.2017 07:55 -0,6 C 1,3 C 0,1 C 0,5 C 0,5 C 1,1 C 89 % 78 % 29 % 1008,4 hPa 0,0 l/m 0,0 km/h (0 Bft) W 270 5 min -2,2 C 0,5 C 0,0 km/h (0 Bft)
03.02.2017 08:00 -0,6 C 1,3 C 0,1 C 0,6 C 0,6 C 1,2 C 89 % 78 % 32 % 1008,4 hPa 0,0 l/m 0,0 km/h (0 Bft) W 270 5 min -2,2 C 0,6 C 0,0 km/h (0 Bft)
03.02.2017 08:05 -0,5 C 1,3 C 0,2 C 0,6 C 0,6 C 1,1 C 89 % 78 % 29 % 1008,4 hPa 0,0 l/m 0,0 km/h (0 Bft) W 270 5 min -2,1 C 0,6 C 0,0 km/h (0 Bft)
03.02.2017 08:10 -0,5 C 1,3 C 0,1 C 0,7 C 0,7 C 1,2 C 89 % 78 % 32 % 1008,4 hPa 0,0 l/m 0,0 km/h (0 Bft) W 270 5 min -2,1 C 0,7 C 0,0 km/h (0 Bft)
03.02.2017 08:15 -0,5 C 1,3 C 0,2 C 0,6 C 0,6 C 1,1 C 89 % 78 % 29 % 1008,4 hPa 0,0 l/m 0,2 km/h (0 Bft) SW 225 5 min -2,1 C 0,6 C 0,0 km/h (0 Bft)
03.02.2017 08:20 -0,5 C 1,3 C 0,3 C 0,6 C 0,6 C 1,1 C 89 % 78 % 29 % 1008,4 hPa 0,0 l/m 0,2 km/h (0 Bft) S 180 5 min -2,1 C 0,6 C 0,0 km/h (0 Bft)
03.02.2017 08:25 -0,5 C 1,3 C 0,2 C 0,7 C 0,7 C 1,2 C 89 % 78 % 32 % 1008,4 hPa 0,0 l/m 0,0 km/h (0 Bft) S 180 5 min -2,1 C 0,7 C 0,0 km/h (0 Bft)
03.02.2017 08:30 -0,5 C 1,3 C 0,3 C 0,6 C 0,6 C 1,1 C 89 % 78 % 29 % 1008,4 hPa 0,0 l/m 0,0 km/h (0 Bft) S 180 5 min -2,1 C 0,6 C 0,0 km/h (0 Bft)
03.02.2017 08:35 -0,5 C 1,3 C 0,3 C 0,7 C 0,7 C 1,2 C 90 % 78 % 32 % 1008,4 hPa 0,0 l/m 0,0 km/h (0 Bft) S 180 5 min -1,9 C 0,7 C 0,0 km/h (0 Bft)
03.02.2017 08:40 -0,4 C 1,3 C 0,4 C 0,9 C 0,9 C 1,3 C 90 % 78 % 34 % 1009,1 hPa 0,0 l/m 0,0 km/h (0 Bft) S 180 5 min -1,8 C 0,9 C 0,0 km/h (0 Bft)
03.02.2017 08:45 -0,3 C 1,3 C 0,4 C 1,1 C 1,1 C 1,4 C 90 % 78 % 37 % 1009,1 hPa 0,0 l/m 0,0 km/h (0 Bft) O 90 5 min -1,7 C 1,1 C 0,0 km/h (0 Bft)
03.02.2017 08:50 -0,3 C 1,3 C 0,5 C 1,2 C 1,2 C 1,5 C 90 % 78 % 39 % 1009,1 hPa 0,0 l/m 0,0 km/h (0 Bft) O-NO 67 5 min -1,7 C 1,2 C 0,0 km/h (0 Bft)
03.02.2017 08:55 -0,2 C 1,4 C 0,6 C 1,3 C 1,3 C 1,5 C 90 % 78 % 39 % 1009,1 hPa 0,0 l/m 0,3 km/h (0 Bft) O-NO 67 5 min -1,6 C 1,3 C 0,0 km/h (0 Bft)
03.02.2017 09:00 -0,1 C 1,4 C 0,7 C 1,6 C 1,6 C 1,7 C 90 % 78 % 45 % 1009,0 hPa 0,0 l/m 0,3 km/h (0 Bft) O-NO 67 5 min -1,5 C 1,6 C 0,0 km/h (0 Bft)
03.02.2017 09:05 0,1 C 1,4 C 0,9 C 1,9 C 1,9 C 1,8 C 90 % 78 % 47 % 1009,0 hPa 0,0 l/m 0,0 km/h (0 Bft) W 270 5 min -1,3 C 1,9 C 0,0 km/h (0 Bft)
03.02.2017 09:10 0,3 C 1,4 C 0,9 C 2,2 C 2,2 C 1,9 C 90 % 78 % 50 % 1009,0 hPa 0,0 l/m 0,3 km/h (0 Bft) NO 45 5 min -1,1 C 2,2 C 0,0 km/h (0 Bft)
03.02.2017 09:15 0,3 C 1,4 C 1,1 C 2,4 C 2,4 C 2,1 C 90 % 78 % 55 % 1009,0 hPa 0,0 l/m 0,2 km/h (0 Bft) O-NO 67 0 min -1,1 C 2,4 C 0,0 km/h (0 Bft)
03.02.2017 09:20 0,5 C 1,4 C 1,3 C 2,7 C 2,7 C 2,2 C 90 % 78 % 58 % 1009,1 hPa 0,0 l/m 0,0 km/h (0 Bft) O-NO 67 0 min -0,9 C 2,7 C 0,0 km/h (0 Bft)
03.02.2017 09:25 0,6 C 1,4 C 1,3 C 3,0 C 3,0 C 2,4 C 90 % 77 % 63 % 1009,1 hPa 0,0 l/m 0,2 km/h (0 Bft) W-SW 247 0 min -0,8 C 3,0 C 0,0 km/h (0 Bft)
03.02.2017 09:30 0,7 C 1,4 C 1,3 C 3,1 C 3,1 C 2,4 C 90 % 77 % 63 % 1009,1 hPa 0,0 l/m 0,2 km/h (0 Bft) W 270 0 min -0,7 C 3,1 C 0,0 km/h (0 Bft)
03.02.2017 09:35 0,6 C 1,4 C 1,3 C 3,2 C 3,2 C 2,6 C 90 % 77 % 68 % 1009,1 hPa 0,0 l/m 0,0 km/h (0 Bft) W 270 0 min -0,8 C 3,2 C 0,0 km/h (0 Bft)
03.02.2017 09:40 0,7 C 1,4 C 1,5 C 3,3 C 3,3 C 2,6 C 90 % 77 % 68 % 1008,8 hPa 0,0 l/m 0,0 km/h (0 Bft) W 270 0 min -0,7 C 3,3 C 0,0 km/h (0 Bft)
03.02.2017 09:45 0,8 C 1,4 C 1,6 C 3,6 C 3,6 C 2,8 C 90 % 77 % 74 % 1008,8 hPa 0,0 l/m 0,0 km/h (0 Bft) W 270 0 min -0,6 C 3,6 C 0,0 km/h (0 Bft)
03.02.2017 09:50 0,9 C 1,4 C 1,7 C 3,7 C 3,7 C 2,8 C 90 % 77 % 74 % 1008,8 hPa 0,0 l/m 0,0 km/h (0 Bft) W 270 0 min -0,6 C 3,7 C 0,0 km/h (0 Bft)
03.02.2017 09:55 1,1 C 1,4 C 1,9 C 4,0 C 4,0 C 2,9 C 91 % 77 % 76 % 1008,8 hPa 0,0 l/m 0,0 km/h (0 Bft) W 270 0 min -0,2 C 4,0 C 0,0 km/h (0 Bft)
03.02.2017 10:00 1,2 C 1,4 C 2,1 C 4,1 C 4,1 C 2,9 C 91 % 77 % 76 % 1008,6 hPa 0,0 l/m 0,0 km/h (0 Bft) W 270 0 min -0,1 C 4,1 C 0,0 km/h (0 Bft)
03.02.2017 10:05 1,5 C 1,4 C 2,3 C 4,5 C 4,5 C 3,0 C 91 % 77 % 79 % 1008,6 hPa 0,0 l/m 0,0 km/h (0 Bft) W 270 0 min 0,2 C 4,5 C 0,0 km/h (0 Bft)
03.02.2017 10:10 1,6 C 1,4 C 2,4 C 4,8 C 4,8 C 3,2 C 91 % 77 % 84 % 1008,6 hPa 0,0 l/m 0,0 km/h (0 Bft) W 270 0 min 0,3 C 4,8 C 0,0 km/h (0 Bft)
03.02.2017 10:15 1,6 C 1,4 C 2,5 C 5,1 C 5,1 C 3,5 C 91 % 77 % 92 % 1008,6 hPa 0,0 l/m 0,0 km/h (0 Bft) W 270 5 min 0,3 C 5,1 C 0,0 km/h (0 Bft)
03.02.2017 10:20 1,9 C 1,4 C 2,7 C 5,2 C 5,2 C 3,3 C 91 % 77 % 87 % 1008,5 hPa 0,0 l/m 0,0 km/h (0 Bft) O-NO 67 5 min 0,6 C 5,2 C 0,0 km/h (0 Bft)
03.02.2017 10:25 2,0 C 1,3 C 2,8 C 5,5 C 5,5 C 3,5 C 91 % 77 % 92 % 1008,5 hPa 0,0 l/m 0,0 km/h (0 Bft) O-NO 67 5 min 0,7 C 5,5 C 0,0 km/h (0 Bft)
03.02.2017 10:30 2,1 C 1,3 C 2,7 C 5,6 C 5,6 C 3,5 C 91 % 76 % 92 % 1008,5 hPa 0,0 l/m 0,0 km/h (0 Bft) W-SW 247 5 min 0,8 C 5,6 C 0,0 km/h (0 Bft)
03.02.2017 10:35 2,3 C 1,3 C 2,8 C 5,8 C 5,8 C 3,5 C 91 % 76 % 92 % 1008,5 hPa 0,0 l/m 0,0 km/h (0 Bft) O-NO 67 5 min 1,0 C 5,8 C 0,0 km/h (0 Bft)
03.02.2017 10:40 2,3 C 1,3 C 3,1 C 6,0 C 6,0 C 3,7 C 91 % 76 % 97 % 1008,8 hPa 0,0 l/m 0,0 km/h (0 Bft) O-NO 67 5 min 1,0 C 6,0 C 0,0 km/h (0 Bft)
03.02.2017 10:45 2,6 C 1,2 C 3,3 C 6,3 C 6,3 C 3,7 C 91 % 76 % 97 % 1008,8 hPa 0,0 l/m 0,2 km/h (0 Bft) W-SW 247 5 min 1,3 C 6,3 C 1,8 km/h (1 Bft)
03.02.2017 10:50 2,6 C 1,2 C 3,3 C 6,4 C 6,4 C 3,8 C 91 % 76 % 100 % 1008,8 hPa 0,0 l/m 0,2 km/h (0 Bft) SW 225 5 min 1,3 C 6,4 C 0,0 km/h (0 Bft)
03.02.2017 10:55 2,7 C 1,2 C 3,3 C 6,5 C 6,5 C 3,8 C 91 % 76 % 100 % 1008,8 hPa 0,0 l/m 0,3 km/h (0 Bft) W-SW 247 5 min 1,4 C 6,5 C 1,6 km/h (1 Bft)
03.02.2017 11:00 2,7 C 1,2 C 3,3 C 6,6 C 6,6 C 3,9 C 91 % 75 % 100 % 1009,1 hPa 0,0 l/m 0,3 km/h (0 Bft) W-SW 247 5 min 1,4 C 6,6 C 0,0 km/h (0 Bft)
03.02.2017 11:05 2,9 C 1,2 C 3,5 C 6,8 C 6,8 C 3,9 C 91 % 75 % 100 % 1009,1 hPa 0,0 l/m 0,2 km/h (0 Bft) W-SW 247 5 min 1,6 C 6,8 C 0,0 km/h (0 Bft)
03.02.2017 11:10 3,1 C 1,3 C 3,7 C 7,0 C 7,0 C 3,9 C 91 % 75 % 100 % 1009,1 hPa 0,0 l/m 0,0 km/h (0 Bft) W-SW 247 5 min 1,8 C 7,0 C 0,0 km/h (0 Bft)
03.02.2017 11:15 3,0 C 1,2 C 3,6 C 7,0 C 7,0 C 4,0 C 91 % 75 % 100 % 1009,1 hPa 0,0 l/m 0,2 km/h (0 Bft) W-SW 247 5 min 1,7 C 7,0 C 0,0 km/h (0 Bft)
03.02.2017 11:20 3,0 C 1,2 C 3,6 C 7,0 C 7,0 C 4,0 C 91 % 74 % 100 % 1008,9 hPa 0,0 l/m 0,2 km/h (0 Bft) W-SW 247 5 min 1,7 C 7,0 C 0,0 km/h (0 Bft)
03.02.2017 11:25 3,0 C 1,2 C 3,6 C 6,9 C 6,9 C 3,9 C 91 % 74 % 100 % 1008,9 hPa 0,0 l/m 0,0 km/h (0 Bft) W-SW 247 5 min 1,7 C 6,9 C 0,0 km/h (0 Bft)
03.02.2017 11:30 3,1 C 1,2 C 3,7 C 6,8 C 6,8 C 3,7 C 91 % 74 % 97 % 1008,9 hPa 0,0 l/m 0,0 km/h (0 Bft) O-SO 112 5 min 1,8 C 6,8 C 0,0 km/h (0 Bft)
03.02.2017 11:35 3,1 C 1,2 C 3,7 C 6,5 C 6,5 C 3,4 C 91 % 74 % 89 % 1008,9 hPa 0,0 l/m 0,0 km/h (0 Bft) O-SO 112 5 min 1,8 C 6,5 C 0,0 km/h (0 Bft)
03.02.2017 11:40 3,1 C 1,3 C 3,7 C 6,5 C 6,5 C 3,4 C 91 % 74 % 89 % 1009,3 hPa 0,0 l/m 0,0 km/h (0 Bft) O-SO 112 5 min 1,8 C 6,5 C 0,0 km/h (0 Bft)
03.02.2017 11:45 3,2 C 1,3 C 3,8 C 6,7 C 6,7 C 3,5 C 91 % 74 % 92 % 1009,3 hPa 0,0 l/m 0,0 km/h (0 Bft) O-SO 112 5 min 1,9 C 6,7 C 0,0 km/h (0 Bft)
03.02.2017 11:50 3,3 C 1,2 C 3,9 C 6,8 C 6,8 C 3,5 C 91 % 74 % 92 % 1009,3 hPa 0,0 l/m 0,0 km/h (0 Bft) O-SO 112 5 min 2,0 C 6,8 C 0,0 km/h (0 Bft)
03.02.2017 11:55 3,5 C 1,2 C 4,0 C 6,9 C 6,9 C 3,4 C 91 % 74 % 89 % 1009,3 hPa 0,0 l/m 0,0 km/h (0 Bft) O-SO 112 5 min 2,2 C 6,9 C 0,0 km/h (0 Bft)
03.02.2017 12:00 3,5 C 1,2 C 4,0 C 6,9 C 6,9 C 3,4 C 91 % 74 % 89 % 1009,1 hPa 0,0 l/m 0,0 km/h (0 Bft) W-SW 247 5 min 2,2 C 6,9 C 0,0 km/h (0 Bft)
03.02.2017 12:05 3,4 C 1,2 C 3,9 C 6,8 C 6,8 C 3,4 C 91 % 74 % 89 % 1009,1 hPa 0,0 l/m 0,3 km/h (0 Bft) SW 225 5 min 2,1 C 6,8 C 3,2 km/h (1 Bft)
03.02.2017 12:10 3,5 C 1,2 C 3,9 C 6,6 C 6,6 C 3,1 C 91 % 74 % 82 % 1009,1 hPa 0,0 l/m 0,5 km/h (0 Bft) O-SO 112 0 min 2,2 C 6,6 C 0,0 km/h (0 Bft)
03.02.2017 12:15 3,3 C 1,2 C 3,9 C 6,4 C 6,4 C 3,1 C 91 % 74 % 82 % 1009,1 hPa 0,0 l/m 0,2 km/h (0 Bft) O-SO 112 0 min 2,0 C 6,4 C 0,0 km/h (0 Bft)
03.02.2017 12:20 3,3 C 1,2 C 3,9 C 6,3 C 6,3 C 3,0 C 90 % 74 % 79 % 1009,0 hPa 0,0 l/m 0,0 km/h (0 Bft) O-SO 112 0 min 1,8 C 6,3 C 0,0 km/h (0 Bft)
03.02.2017 12:25 3,5 C 1,2 C 3,9 C 6,3 C 6,3 C 2,8 C 91 % 74 % 74 % 1009,0 hPa 0,0 l/m 0,0 km/h (0 Bft) O-SO 112 0 min 2,2 C 6,3 C 0,0 km/h (0 Bft)
03.02.2017 12:30 3,5 C 1,2 C 3,9 C 6,4 C 6,4 C 2,9 C 91 % 74 % 76 % 1009,0 hPa 0,0 l/m 0,0 km/h (0 Bft) W-SW 247 0 min 2,2 C 6,4 C 0,0 km/h (0 Bft)
03.02.2017 12:35 3,5 C 1,2 C 3,9 C 6,2 C 6,2 C 2,7 C 90 % 74 % 71 % 1009,0 hPa 0,0 l/m 0,5 km/h (0 Bft) W 270 0 min 2,0 C 6,2 C 0,0 km/h (0 Bft)
03.02.2017 12:40 3,4 C 1,3 C 3,9 C 6,1 C 6,1 C 2,7 C 90 % 74 % 71 % 1009,0 hPa 0,0 l/m 0,5 km/h (0 Bft) NW 315 0 min 1,9 C 6,1 C 0,0 km/h (0 Bft)
03.02.2017 12:45 3,5 C 1,2 C 4,0 C 6,1 C 6,1 C 2,6 C 90 % 74 % 68 % 1009,0 hPa 0,0 l/m 0,0 km/h (0 Bft) S-SW 202 0 min 2,0 C 6,1 C 0,0 km/h (0 Bft)
03.02.2017 12:50 3,5 C 1,2 C 3,9 C 6,1 C 6,1 C 2,6 C 90 % 74 % 68 % 1009,0 hPa 0,0 l/m 0,0 km/h (0 Bft) S-SW 202 0 min 2,0 C 6,1 C 0,0 km/h (0 Bft)
03.02.2017 12:55 3,5 C 1,3 C 3,9 C 6,1 C 6,1 C 2,6 C 90 % 74 % 68 % 1009,0 hPa 0,0 l/m 0,0 km/h (0 Bft) W-SW 247 0 min 2,0 C 6,1 C 0,0 km/h (0 Bft)
03.02.2017 13:00 3,5 C 1,3 C 4,0 C 6,0 C 6,0 C 2,5 C 90 % 74 % 66 % 1008,9 hPa 0,0 l/m 0,0 km/h (0 Bft) W-SW 247 0 min 2,0 C 6,0 C 0,0 km/h (0 Bft)
03.02.2017 13:05 3,6 C 1,2 C 4,1 C 6,1 C 6,1 C 2,5 C 90 % 74 % 66 % 1008,9 hPa 0,0 l/m 0,0 km/h (0 Bft) W-SW 247 0 min 2,1 C 6,1 C 0,0 km/h (0 Bft)
03.02.2017 13:10 3,6 C 1,3 C 4,0 C 6,1 C 6,1 C 2,5 C 90 % 74 % 66 % 1008,9 hPa 0,0 l/m 0,0 km/h (0 Bft) W-SW 247 0 min 2,1 C 6,1 C 0,0 km/h (0 Bft)
03.02.2017 13:15 3,8 C 1,3 C 4,1 C 6,2 C 6,2 C 2,4 C 90 % 74 % 63 % 1008,9 hPa 0,0 l/m 0,0 km/h (0 Bft) W-SW 247 0 min 2,3 C 6,2 C 0,0 km/h (0 Bft)
03.02.2017 13:20 3,9 C 1,3 C 4,1 C 6,3 C 6,3 C 2,4 C 90 % 74 % 63 % 1008,8 hPa 0,0 l/m 0,0 km/h (0 Bft) W-SW 247 0 min 2,4 C 6,3 C 0,0 km/h (0 Bft)
03.02.2017 13:25 4,0 C 1,3 C 4,3 C 6,4 C 6,4 C 2,4 C 90 % 74 % 63 % 1008,8 hPa 0,0 l/m 0,0 km/h (0 Bft) W-SW 247 0 min 2,5 C 6,4 C 0,0 km/h (0 Bft)
03.02.2017 13:30 4,1 C 1,3 C 4,0 C 6,5 C 6,5 C 2,4 C 90 % 74 % 63 % 1008,8 hPa 0,0 l/m 0,0 km/h (0 Bft) W-SW 247 0 min 2,6 C 6,5 C 0,0 km/h (0 Bft)
03.02.2017 13:35 4,1 C 1,4 C 4,0 C 6,7 C 6,7 C 2,6 C 90 % 74 % 68 % 1008,8 hPa 0,0 l/m 0,0 km/h (0 Bft) W-SW 247 0 min 2,6 C 6,7 C 0,0 km/h (0 Bft)
03.02.2017 13:40 4,1 C 1,3 C 4,1 C 6,8 C 6,8 C 2,7 C 90 % 74 % 71 % 1008,8 hPa 0,0 l/m 0,0 km/h (0 Bft) W-SW 247 0 min 2,6 C 6,8 C 0,0 km/h (0 Bft)
03.02.2017 13:45 4,1 C 1,3 C 4,0 C 6,6 C 6,6 C 2,5 C 90 % 74 % 66 % 1008,8 hPa 0,0 l/m 0,5 km/h (0 Bft) W-SW 247 0 min 2,6 C 6,6 C 1,8 km/h (1 Bft)
03.02.2017 13:50 3,8 C 1,3 C 4,0 C 6,4 C 6,4 C 2,6 C 90 % 74 % 68 % 1008,8 hPa 0,0 l/m 0,6 km/h (0 Bft) W-SW 247 0 min 2,3 C 6,4 C 0,0 km/h (0 Bft)
03.02.2017 13:55 3,9 C 1,3 C 4,1 C 6,3 C 6,3 C 2,4 C 90 % 74 % 63 % 1008,8 hPa 0,0 l/m 0,3 km/h (0 Bft) W-SW 247 0 min 2,4 C 6,3 C 0,0 km/h (0 Bft)
03.02.2017 14:00 3,9 C 1,3 C 4,1 C 6,4 C 6,4 C 2,5 C 90 % 74 % 66 % 1008,9 hPa 0,0 l/m 0,0 km/h (0 Bft) W-SW 247 0 min 2,4 C 6,4 C 0,0 km/h (0 Bft)
03.02.2017 14:05 3,9 C 1,3 C 4,3 C 6,3 C 6,3 C 2,4 C 90 % 74 % 63 % 1008,9 hPa 0,0 l/m 0,0 km/h (0 Bft) O-NO 67 0 min 2,4 C 6,3 C 0,0 km/h (0 Bft)
03.02.2017 14:10 3,7 C 1,4 C 4,2 C 6,0 C 6,0 C 2,3 C 90 % 74 % 61 % 1008,9 hPa 0,0 l/m 0,2 km/h (0 Bft) O-NO 67 0 min 2,2 C 6,0 C 1,6 km/h (1 Bft)
03.02.2017 14:15 3,7 C 1,3 C 4,3 C 6,0 C 6,0 C 2,3 C 90 % 74 % 61 % 1008,9 hPa 0,0 l/m 0,3 km/h (0 Bft) O-NO 67 0 min 2,2 C 6,0 C 0,0 km/h (0 Bft)
03.02.2017 14:20 3,8 C 1,4 C 4,4 C 6,2 C 6,2 C 2,4 C 90 % 74 % 63 % 1008,3 hPa 0,0 l/m 0,2 km/h (0 Bft) O-NO 67 0 min 2,3 C 6,2 C 0,0 km/h (0 Bft)
03.02.2017 14:25 4,1 C 1,3 C 4,4 C 6,5 C 6,5 C 2,4 C 90 % 74 % 63 % 1008,3 hPa 0,0 l/m 0,0 km/h (0 Bft) O-NO 67 0 min 2,6 C 6,5 C 0,0 km/h (0 Bft)
03.02.2017 14:30 4,1 C 1,4 C 4,5 C 6,7 C 6,7 C 2,6 C 90 % 74 % 68 % 1008,3 hPa 0,0 l/m 0,0 km/h (0 Bft) O-NO 67 0 min 2,6 C 6,7 C 0,0 km/h (0 Bft)
03.02.2017 14:35 4,3 C 1,3 C 4,5 C 6,9 C 6,9 C 2,6 C 90 % 74 % 68 % 1008,3 hPa 0,0 l/m 0,0 km/h (0 Bft) NO 45 0 min 2,8 C 6,9 C 0,0 km/h (0 Bft)
03.02.2017 14:40 4,4 C 1,3 C 4,5 C 7,0 C 7,0 C 2,6 C 90 % 74 % 68 % 1008,0 hPa 0,0 l/m 0,0 km/h (0 Bft) SW 225 0 min 2,9 C 7,0 C 0,0 km/h (0 Bft)
03.02.2017 14:45 4,5 C 1,3 C 4,5 C 7,2 C 7,2 C 2,7 C 90 % 74 % 71 % 1008,0 hPa 0,0 l/m 0,0 km/h (0 Bft) SW 225 0 min 3,0 C 7,2 C 0,0 km/h (0 Bft)
03.02.2017 14:50 4,4 C 1,3 C 4,4 C 7,3 C 7,3 C 2,9 C 90 % 74 % 76 % 1008,0 hPa 0,0 l/m 0,0 km/h (0 Bft) W-SW 247 0 min 2,9 C 7,3 C 0,0 km/h (0 Bft)
03.02.2017 14:55 4,3 C 1,3 C 4,4 C 7,2 C 7,2 C 2,9 C 90 % 74 % 76 % 1008,0 hPa 0,0 l/m 0,0 km/h (0 Bft) W-SW 247 0 min 2,8 C 7,2 C 0,0 km/h (0 Bft)
03.02.2017 15:00 4,4 C 1,3 C 4,4 C 7,2 C 7,2 C 2,8 C 90 % 74 % 74 % 1008,5 hPa 0,0 l/m 0,0 km/h (0 Bft) W-SW 247 0 min 2,9 C 7,2 C 0,0 km/h (0 Bft)
03.02.2017 15:05 4,3 C 1,3 C 4,4 C 7,1 C 7,1 C 2,8 C 90 % 74 % 74 % 1008,5 hPa 0,0 l/m 0,0 km/h (0 Bft) O-NO 67 0 min 2,8 C 7,1 C 0,0 km/h (0 Bft)
03.02.2017 15:10 4,3 C 1,3 C 4,4 C 7,1 C 7,1 C 2,8 C 90 % 74 % 74 % 1008,5 hPa 0,0 l/m 0,0 km/h (0 Bft) W 270 0 min 2,8 C 7,1 C 1,8 km/h (1 Bft)
03.02.2017 15:15 4,3 C 1,4 C 4,2 C 7,0 C 7,0 C 2,7 C 90 % 74 % 71 % 1008,5 hPa 0,0 l/m 0,0 km/h (0 Bft) W 270 0 min 2,8 C 7,0 C 0,0 km/h (0 Bft)
03.02.2017 15:20 4,3 C 1,3 C 4,3 C 7,0 C 7,0 C 2,7 C 90 % 75 % 71 % 1008,1 hPa 0,0 l/m 0,0 km/h (0 Bft) W 270 0 min 2,8 C 7,0 C 0,0 km/h (0 Bft)
03.02.2017 15:25 4,3 C 1,3 C 4,2 C 7,0 C 7,0 C 2,7 C 90 % 75 % 71 % 1008,1 hPa 0,0 l/m 0,0 km/h (0 Bft) W 270 0 min 2,8 C 7,0 C 0,0 km/h (0 Bft)
03.02.2017 15:30 4,3 C 1,3 C 4,1 C 7,0 C 7,0 C 2,7 C 90 % 75 % 71 % 1008,1 hPa 0,0 l/m 0,0 km/h (0 Bft) W 270 5 min 2,8 C 7,0 C 0,0 km/h (0 Bft)
03.02.2017 15:35 4,3 C 1,4 C 4,1 C 6,9 C 6,9 C 2,6 C 90 % 74 % 68 % 1008,1 hPa 0,0 l/m 0,0 km/h (0 Bft) W 270 5 min 2,8 C 6,9 C 0,0 km/h (0 Bft)
03.02.2017 15:40 4,2 C 1,3 C 4,0 C 6,8 C 6,8 C 2,6 C 90 % 75 % 68 % 1008,1 hPa 0,0 l/m 0,0 km/h (0 Bft) W 270 5 min 2,7 C 6,8 C 0,0 km/h (0 Bft)
03.02.2017 15:45 4,3 C 1,3 C 4,0 C 6,7 C 6,7 C 2,4 C 89 % 75 % 63 % 1008,1 hPa 0,0 l/m 0,0 km/h (0 Bft) W 270 5 min 2,7 C 6,7 C 0,0 km/h (0 Bft)
03.02.2017 15:50 4,3 C 1,3 C 4,0 C 6,6 C 6,6 C 2,3 C 89 % 74 % 61 % 1008,1 hPa 0,0 l/m 0,0 km/h (0 Bft) W 270 5 min 2,7 C 6,6 C 0,0 km/h (0 Bft)
03.02.2017 15:55 4,1 C 1,3 C 4,0 C 6,5 C 6,5 C 2,4 C 89 % 75 % 63 % 1008,1 hPa 0,0 l/m 0,0 km/h (0 Bft) W 270 5 min 2,5 C 6,5 C 0,0 km/h (0 Bft)
03.02.2017 16:00 4,0 C 1,3 C 3,8 C 6,3 C 6,3 C 2,3 C 89 % 75 % 61 % 1008,1 hPa 0,0 l/m 0,0 km/h (0 Bft) W 270 5 min 2,4 C 6,3 C 0,0 km/h (0 Bft)
03.02.2017 16:05 4,1 C 1,3 C 3,7 C 6,2 C 6,2 C 2,1 C 89 % 75 % 55 % 1008,1 hPa 0,0 l/m 0,0 km/h (0 Bft) W 270 5 min 2,5 C 6,2 C 0,0 km/h (0 Bft)
03.02.2017 16:10 4,1 C 1,4 C 3,7 C 6,1 C 6,1 C 2,0 C 89 % 75 % 53 % 1008,1 hPa 0,0 l/m 0,0 km/h (0 Bft) W 270 5 min 2,5 C 6,1 C 0,0 km/h (0 Bft)
03.02.2017 16:15 3,9 C 1,4 C 3,6 C 6,0 C 6,0 C 2,1 C 89 % 75 % 55 % 1008,1 hPa 0,0 l/m 0,0 km/h (0 Bft) W 270 5 min 2,3 C 6,0 C 0,0 km/h (0 Bft)
03.02.2017 16:20 3,9 C 1,4 C 3,4 C 5,8 C 5,8 C 1,9 C 89 % 76 % 50 % 1008,2 hPa 0,0 l/m 0,0 km/h (0 Bft) W 270 5 min 2,3 C 5,8 C 0,0 km/h (0 Bft)
03.02.2017 16:25 3,6 C 1,4 C 3,5 C 5,6 C 5,6 C 2,0 C 89 % 76 % 53 % 1008,2 hPa 0,0 l/m 0,0 km/h (0 Bft) W 270 5 min 2,0 C 5,6 C 0,0 km/h (0 Bft)
03.02.2017 16:30 3,6 C 1,4 C 3,5 C 5,5 C 5,5 C 1,9 C 89 % 76 % 50 % 1008,2 hPa 0,0 l/m 0,0 km/h (0 Bft) W 270 5 min 2,0 C 5,5 C 0,0 km/h (0 Bft)
03.02.2017 16:35 3,5 C 1,4 C 3,4 C 5,2 C 5,2 C 1,7 C 88 % 75 % 45 % 1008,2 hPa 0,0 l/m 0,0 km/h (0 Bft) W 270 5 min 1,7 C 5,2 C 0,0 km/h (0 Bft)
03.02.2017 16:40 3,3 C 1,4 C 3,3 C 5,1 C 5,1 C 1,8 C 88 % 76 % 47 % 1008,2 hPa 0,0 l/m 0,0 km/h (0 Bft) W 270 5 min 1,5 C 5,1 C 0,0 km/h (0 Bft)
03.02.2017 16:45 3,3 C 1,4 C 3,1 C 5,0 C 5,0 C 1,7 C 88 % 75 % 45 % 1008,2 hPa 0,0 l/m 0,0 km/h (0 Bft) W 270 5 min 1,5 C 5,0 C 0,0 km/h (0 Bft)
03.02.2017 16:50 3,2 C 1,4 C 3,1 C 4,8 C 4,8 C 1,6 C 88 % 76 % 42 % 1008,2 hPa 0,0 l/m 0,0 km/h (0 Bft) W 270 5 min 1,4 C 4,8 C 0,0 km/h (0 Bft)
03.02.2017 16:55 3,1 C 1,4 C 2,8 C 4,5 C 4,5 C 1,4 C 88 % 76 % 0 % 1008,2 hPa 0,0 l/m 0,0 km/h (0 Bft) W 270 0 min 1,3 C 4,5 C 0,0 km/h (0 Bft)
03.02.2017 17:00 3,0 C 1,5 C 2,8 C 4,3 C 4,3 C 1,3 C 88 % 76 % 0 % 1008,3 hPa 0,0 l/m 0,0 km/h (0 Bft) W 270 0 min 1,2 C 4,3 C 0,0 km/h (0 Bft)
03.02.2017 17:05 2,8 C 1,5 C 2,7 C 4,2 C 4,2 C 1,4 C 88 % 76 % 0 % 1008,3 hPa 0,0 l/m 0,0 km/h (0 Bft) W 270 0 min 1,0 C 4,2 C 0,0 km/h (0 Bft)
03.02.2017 17:10 2,8 C 1,5 C 2,7 C 4,1 C 4,1 C 1,3 C 88 % 76 % 0 % 1008,3 hPa 0,0 l/m 0,0 km/h (0 Bft) O-NO 67 0 min 1,0 C 4,1 C 0,0 km/h (0 Bft)
03.02.2017 17:15 2,7 C 1,5 C 2,6 C 4,1 C 4,1 C 1,4 C 88 % 76 % 0 % 1008,3 hPa 0,0 l/m 0,0 km/h (0 Bft) O-NO 67 0 min 0,9 C 4,1 C 0,0 km/h (0 Bft)
03.02.2017 17:20 2,7 C 1,5 C 2,7 C 4,1 C 4,1 C 1,4 C 88 % 76 % 0 % 1008,2 hPa 0,0 l/m 0,0 km/h (0 Bft) O-NO 67 0 min 0,9 C 4,1 C 0,0 km/h (0 Bft)
03.02.2017 17:25 2,5 C 1,5 C 2,5 C 4,0 C 4,0 C 1,5 C 88 % 75 % 0 % 1008,2 hPa 0,0 l/m 0,0 km/h (0 Bft) W 270 0 min 0,7 C 4,0 C 0,0 km/h (0 Bft)
03.02.2017 17:30 2,4 C 1,5 C 2,5 C 3,7 C 3,7 C 1,3 C 88 % 75 % 0 % 1008,2 hPa 0,0 l/m 0,0 km/h (0 Bft) W 270 0 min 0,6 C 3,7 C 0,0 km/h (0 Bft)
03.02.2017 17:35 2,3 C 1,5 C 2,5 C 3,6 C 3,6 C 1,3 C 88 % 75 % 0 % 1008,2 hPa 0,0 l/m 0,0 km/h (0 Bft) W 270 0 min 0,5 C 3,6 C 0,0 km/h (0 Bft)
03.02.2017 17:40 2,3 C 1,5 C 2,5 C 3,5 C 3,5 C 1,2 C 88 % 75 % 0 % 1008,6 hPa 0,0 l/m 0,0 km/h (0 Bft) O 90 0 min 0,5 C 3,5 C 0,0 km/h (0 Bft)
03.02.2017 17:45 2,3 C 1,5 C 2,3 C 3,5 C 3,5 C 1,2 C 88 % 75 % 0 % 1008,6 hPa 0,0 l/m 0,0 km/h (0 Bft) O-NO 67 0 min 0,5 C 3,5 C 0,0 km/h (0 Bft)
03.02.2017 17:50 2,3 C 1,5 C 2,3 C 3,5 C 3,5 C 1,2 C 88 % 75 % 0 % 1008,6 hPa 0,0 l/m 0,0 km/h (0 Bft) O-NO 67 0 min 0,5 C 3,5 C 0,0 km/h (0 Bft)
03.02.2017 17:55 2,2 C 1,3 C 2,2 C 3,5 C 3,5 C 1,3 C 88 % 75 % 0 % 1008,6 hPa 0,0 l/m 0,0 km/h (0 Bft) O-NO 67 0 min 0,4 C 3,5 C 0,0 km/h (0 Bft)
03.02.2017 18:00 2,3 C 1,3 C 2,3 C 3,6 C 3,6 C 1,3 C 88 % 75 % 0 % 1008,6 hPa 0,0 l/m 0,0 km/h (0 Bft) O-NO 67 0 min 0,5 C 3,6 C 0,0 km/h (0 Bft)
03.02.2017 18:05 2,2 C 1,3 C 2,3 C 3,6 C 3,6 C 1,4 C 88 % 75 % 0 % 1008,6 hPa 0,0 l/m 0,0 km/h (0 Bft) O-NO 67 0 min 0,4 C 3,6 C 0,0 km/h (0 Bft)
03.02.2017 18:10 2,1 C 1,3 C 2,1 C 3,6 C 3,6 C 1,5 C 88 % 75 % 0 % 1008,6 hPa 0,0 l/m 0,0 km/h (0 Bft) O-NO 67 0 min 0,3 C 3,6 C 0,0 km/h (0 Bft)
03.02.2017 18:15 2,0 C 1,3 C 2,1 C 3,6 C 3,6 C 1,6 C 88 % 75 % 0 % 1008,6 hPa 0,0 l/m 0,0 km/h (0 Bft) W-SW 247 0 min 0,2 C 3,6 C 0,0 km/h (0 Bft)
03.02.2017 18:20 2,0 C 1,3 C 2,2 C 3,4 C 3,4 C 1,4 C 88 % 75 % 0 % 1007,9 hPa 0,0 l/m 0,0 km/h (0 Bft) W-SW 247 0 min 0,2 C 3,4 C 0,0 km/h (0 Bft)
03.02.2017 18:25 1,9 C 1,3 C 2,1 C 3,3 C 3,3 C 1,4 C 88 % 75 % 0 % 1007,9 hPa 0,0 l/m 0,0 km/h (0 Bft) W-SW 247 0 min 0,1 C 3,3 C 0,0 km/h (0 Bft)
03.02.2017 18:30 1,8 C 1,3 C 2,0 C 3,2 C 3,2 C 1,4 C 88 % 75 % 0 % 1007,9 hPa 0,0 l/m 0,0 km/h (0 Bft) W 270 0 min 0,0 C 3,2 C 0,0 km/h (0 Bft)
03.02.2017 18:35 1,7 C 1,3 C 2,0 C 3,1 C 3,1 C 1,4 C 88 % 75 % 0 % 1007,9 hPa 0,0 l/m 0,0 km/h (0 Bft) W 270 0 min -0,1 C 3,1 C 0,0 km/h (0 Bft)
03.02.2017 18:40 1,7 C 1,3 C 2,0 C 3,1 C 3,1 C 1,4 C 88 % 75 % 0 % 1008,2 hPa 0,0 l/m 0,0 km/h (0 Bft) W 270 0 min -0,1 C 3,1 C 0,0 km/h (0 Bft)
03.02.2017 18:45 1,6 C 1,3 C 2,0 C 3,0 C 3,0 C 1,4 C 88 % 75 % 0 % 1008,2 hPa 0,0 l/m 0,0 km/h (0 Bft) W 270 0 min -0,2 C 3,0 C 0,0 km/h (0 Bft)
03.02.2017 18:50 1,7 C 1,3 C 2,0 C 3,0 C 3,0 C 1,3 C 88 % 75 % 0 % 1008,2 hPa 0,0 l/m 0,0 km/h (0 Bft) W 270 0 min -0,1 C 3,0 C 0,0 km/h (0 Bft)
03.02.2017 18:55 1,6 C 1,3 C 2,0 C 3,0 C 3,0 C 1,4 C 88 % 75 % 0 % 1008,2 hPa 0,0 l/m 0,0 km/h (0 Bft) W 270 0 min -0,2 C 3,0 C 0,0 km/h (0 Bft)
03.02.2017 19:00 1,6 C 1,3 C 2,0 C 3,0 C 3,0 C 1,4 C 88 % 75 % 0 % 1008,3 hPa 0,0 l/m 0,0 km/h (0 Bft) W 270 0 min -0,2 C 3,0 C 0,0 km/h (0 Bft)
03.02.2017 19:05 1,6 C 1,4 C 1,9 C 2,9 C 2,9 C 1,3 C 88 % 75 % 0 % 1008,3 hPa 0,0 l/m 0,0 km/h (0 Bft) W 270 0 min -0,2 C 2,9 C 0,0 km/h (0 Bft)
03.02.2017 19:10 1,5 C 1,4 C 1,9 C 3,0 C 3,0 C 1,5 C 88 % 75 % 0 % 1008,3 hPa 0,0 l/m 0,0 km/h (0 Bft) W 270 0 min -0,3 C 3,0 C 0,0 km/h (0 Bft)
03.02.2017 19:15 1,6 C 1,4 C 2,0 C 3,0 C 3,0 C 1,4 C 88 % 75 % 0 % 1008,3 hPa 0,0 l/m 0,0 km/h (0 Bft) W 270 0 min -0,2 C 3,0 C 0,0 km/h (0 Bft)
03.02.2017 19:20 1,6 C 1,4 C 2,1 C 3,0 C 3,0 C 1,4 C 88 % 75 % 0 % 1008,1 hPa 0,0 l/m 0,0 km/h (0 Bft) W 270 0 min -0,2 C 3,0 C 0,0 km/h (0 Bft)
03.02.2017 19:25 1,7 C 1,4 C 2,0 C 3,0 C 3,0 C 1,3 C 88 % 75 % 0 % 1008,1 hPa 0,0 l/m 0,0 km/h (0 Bft) W 270 0 min -0,1 C 3,0 C 0,0 km/h (0 Bft)
03.02.2017 19:30 1,6 C 1,4 C 2,0 C 3,0 C 3,0 C 1,4 C 88 % 75 % 0 % 1008,1 hPa 0,0 l/m 0,0 km/h (0 Bft) O-NO 67 0 min -0,2 C 3,0 C 0,0 km/h (0 Bft)
03.02.2017 19:35 1,7 C 1,4 C 2,0 C 3,1 C 3,1 C 1,4 C 88 % 75 % 0 % 1008,1 hPa 0,0 l/m 0,0 km/h (0 Bft) O-NO 67 0 min -0,1 C 3,1 C 0,0 km/h (0 Bft)
03.02.2017 19:40 1,6 C 1,4 C 2,0 C 3,1 C 3,1 C 1,5 C 88 % 75 % 0 % 1008,1 hPa 0,0 l/m 0,0 km/h (0 Bft) O-NO 67 0 min -0,2 C 3,1 C 0,0 km/h (0 Bft)
03.02.2017 19:45 1,5 C 1,4 C 2,1 C 3,0 C 3,0 C 1,5 C 88 % 75 % 0 % 1008,1 hPa 0,0 l/m 0,0 km/h (0 Bft) O-NO 67 0 min -0,3 C 3,0 C 0,0 km/h (0 Bft)
03.02.2017 19:50 1,5 C 1,4 C 2,0 C 3,0 C 3,0 C 1,5 C 88 % 75 % 0 % 1008,1 hPa 0,0 l/m 0,0 km/h (0 Bft) O-NO 67 0 min -0,3 C 3,0 C 0,0 km/h (0 Bft)
03.02.2017 19:55 1,5 C 1,4 C 1,9 C 3,0 C 3,0 C 1,5 C 88 % 75 % 0 % 1008,1 hPa 0,0 l/m 0,0 km/h (0 Bft) W 270 0 min -0,3 C 3,0 C 0,0 km/h (0 Bft)
03.02.2017 20:00 1,4 C 1,4 C 1,9 C 2,8 C 2,8 C 1,4 C 88 % 75 % 0 % 1008,0 hPa 0,0 l/m 0,0 km/h (0 Bft) W 270 0 min -0,4 C 2,8 C 0,0 km/h (0 Bft)
03.02.2017 20:05 1,3 C 1,4 C 1,8 C 2,6 C 2,6 C 1,3 C 88 % 75 % 0 % 1008,0 hPa 0,0 l/m 0,0 km/h (0 Bft) W 270 0 min -0,5 C 2,6 C 0,0 km/h (0 Bft)
03.02.2017 20:10 1,3 C 1,4 C 1,9 C 2,6 C 2,6 C 1,3 C 88 % 75 % 0 % 1008,0 hPa 0,0 l/m 0,0 km/h (0 Bft) W 270 0 min -0,5 C 2,6 C 0,0 km/h (0 Bft)
03.02.2017 20:15 1,3 C 1,4 C 1,8 C 2,6 C 2,6 C 1,3 C 88 % 75 % 0 % 1008,0 hPa 0,7 l/m 0,0 km/h (0 Bft) W 270 0 min -0,5 C 2,6 C 0,0 km/h (0 Bft)
03.02.2017 20:20 1,2 C 1,4 C 1,7 C 2,6 C 2,6 C 1,4 C 88 % 75 % 0 % 1007,9 hPa 0,0 l/m 0,0 km/h (0 Bft) W 270 0 min -0,6 C 2,6 C 0,0 km/h (0 Bft)
03.02.2017 20:25 1,2 C 1,4 C 1,9 C 2,7 C 2,7 C 1,5 C 88 % 75 % 0 % 1007,9 hPa 0,0 l/m 0,0 km/h (0 Bft) W 270 0 min -0,6 C 2,7 C 0,0 km/h (0 Bft)
03.02.2017 20:30 1,2 C 1,4 C 1,9 C 2,7 C 2,7 C 1,5 C 88 % 75 % 0 % 1007,9 hPa 0,0 l/m 0,0 km/h (0 Bft) W 270 0 min -0,6 C 2,7 C 0,0 km/h (0 Bft)
03.02.2017 20:35 1,3 C 1,4 C 1,9 C 2,7 C 2,7 C 1,4 C 88 % 75 % 0 % 1007,9 hPa 0,0 l/m 0,0 km/h (0 Bft) SW 225 0 min -0,5 C 2,7 C 0,0 km/h (0 Bft)
03.02.2017 20:40 1,3 C 1,4 C 2,0 C 2,7 C 2,7 C 1,4 C 89 % 75 % 0 % 1008,2 hPa 0,0 l/m 0,0 km/h (0 Bft) SW 225 0 min -0,3 C 2,7 C 0,0 km/h (0 Bft)
03.02.2017 20:45 1,3 C 1,4 C 2,1 C 2,7 C 2,7 C 1,4 C 89 % 75 % 0 % 1008,2 hPa 0,0 l/m 0,0 km/h (0 Bft) NW 315 0 min -0,3 C 2,7 C 0,0 km/h (0 Bft)
03.02.2017 20:50 1,3 C 1,4 C 2,0 C 2,8 C 2,8 C 1,5 C 89 % 75 % 0 % 1008,2 hPa 0,0 l/m 0,0 km/h (0 Bft) W-NW 292 0 min -0,3 C 2,8 C 0,0 km/h (0 Bft)
03.02.2017 20:55 1,3 C 1,4 C 2,0 C 2,9 C 2,9 C 1,6 C 89 % 75 % 0 % 1008,2 hPa 0,0 l/m 0,0 km/h (0 Bft) W-NW 292 0 min -0,3 C 2,9 C 0,0 km/h (0 Bft)
03.02.2017 21:00 1,3 C 1,4 C 2,0 C 3,0 C 3,0 C 1,7 C 89 % 75 % 0 % 1008,2 hPa 0,0 l/m 0,0 km/h (0 Bft) O-NO 67 0 min -0,3 C 3,0 C 0,0 km/h (0 Bft)
03.02.2017 21:05 1,3 C 1,4 C 1,9 C 2,9 C 2,9 C 1,6 C 89 % 75 % 0 % 1008,2 hPa 0,0 l/m 0,0 km/h (0 Bft) W 270 0 min -0,3 C 2,9 C 0,0 km/h (0 Bft)
03.02.2017 21:10 1,3 C 1,4 C 1,9 C 3,0 C 3,0 C 1,7 C 89 % 75 % 0 % 1008,2 hPa 0,0 l/m 0,0 km/h (0 Bft) W 270 0 min -0,3 C 3,0 C 0,0 km/h (0 Bft)
03.02.2017 21:15 1,5 C 1,4 C 1,9 C 3,0 C 3,0 C 1,5 C 89 % 75 % 0 % 1008,2 hPa 0,0 l/m 0,0 km/h (0 Bft) O-NO 67 0 min -0,1 C 3,0 C 0,0 km/h (0 Bft)
03.02.2017 21:20 1,5 C 1,4 C 2,0 C 3,0 C 3,0 C 1,5 C 89 % 75 % 0 % 1008,3 hPa 0,0 l/m 0,8 km/h (0 Bft) O-NO 67 0 min -0,1 C 3,0 C 3,1 km/h (1 Bft)
03.02.2017 21:25 1,5 C 1,4 C 2,0 C 2,9 C 2,9 C 1,4 C 89 % 75 % 0 % 1008,3 hPa 0,0 l/m 1,8 km/h (1 Bft) O 90 0 min -0,1 C 2,9 C 0,0 km/h (0 Bft)
03.02.2017 21:30 1,4 C 1,4 C 2,0 C 2,9 C 2,9 C 1,5 C 89 % 75 % 0 % 1008,3 hPa 0,0 l/m 1,3 km/h (1 Bft) W-SW 247 0 min -0,2 C 2,9 C 0,0 km/h (0 Bft)
03.02.2017 21:35 1,5 C 1,4 C 2,0 C 2,9 C 2,9 C 1,4 C 89 % 75 % 0 % 1008,3 hPa 0,0 l/m 0,0 km/h (0 Bft) W-NW 292 0 min -0,1 C 2,9 C 0,0 km/h (0 Bft)
03.02.2017 21:40 1,5 C 1,4 C 1,9 C 2,8 C 2,8 C 1,3 C 89 % 75 % 0 % 1008,4 hPa 0,0 l/m 0,0 km/h (0 Bft) W-NW 292 0 min -0,1 C 2,8 C 0,0 km/h (0 Bft)
03.02.2017 21:45 1,4 C 1,4 C 2,0 C 2,7 C 2,7 C 1,3 C 89 % 75 % 0 % 1008,4 hPa 0,0 l/m 0,0 km/h (0 Bft) W-NW 292 0 min -0,2 C 2,7 C 0,0 km/h (0 Bft)
03.02.2017 21:50 1,3 C 1,4 C 1,9 C 2,7 C 2,7 C 1,4 C 89 % 75 % 0 % 1008,4 hPa 0,0 l/m 0,0 km/h (0 Bft) W-NW 292 0 min -0,3 C 2,7 C 0,0 km/h (0 Bft)
03.02.2017 21:55 1,2 C 1,4 C 1,9 C 2,7 C 2,7 C 1,5 C 89 % 75 % 0 % 1008,4 hPa 0,0 l/m 0,0 km/h (0 Bft) O-NO 67 0 min -0,4 C 2,7 C 1,8 km/h (1 Bft)
03.02.2017 22:00 1,3 C 1,4 C 1,9 C 2,7 C 2,7 C 1,4 C 89 % 75 % 0 % 1008,5 hPa 0,0 l/m 0,6 km/h (0 Bft) O-NO 67 0 min -0,3 C 2,7 C 0,0 km/h (0 Bft)
03.02.2017 22:05 1,5 C 1,4 C 2,0 C 2,8 C 2,8 C 1,3 C 89 % 75 % 0 % 1008,5 hPa 0,0 l/m 1,0 km/h (0 Bft) W-SW 247 0 min -0,1 C 2,8 C 0,0 km/h (0 Bft)
03.02.2017 22:10 1,5 C 1,4 C 2,1 C 2,8 C 2,8 C 1,3 C 89 % 75 % 0 % 1008,5 hPa 0,0 l/m 0,5 km/h (0 Bft) S 180 0 min -0,1 C 2,8 C 0,0 km/h (0 Bft)
03.02.2017 22:15 1,3 C 1,4 C 1,9 C 2,6 C 2,6 C 1,3 C 89 % 75 % 0 % 1008,5 hPa 0,0 l/m 0,3 km/h (0 Bft) W 270 0 min -0,3 C 2,6 C 0,0 km/h (0 Bft)
03.02.2017 22:20 1,2 C 1,4 C 1,9 C 2,6 C 2,6 C 1,4 C 89 % 75 % 0 % 1008,3 hPa 0,0 l/m 0,0 km/h (0 Bft) W 270 0 min -0,4 C 2,6 C 0,0 km/h (0 Bft)
03.02.2017 22:25 1,2 C 1,4 C 1,9 C 2,5 C 2,5 C 1,3 C 89 % 75 % 0 % 1008,3 hPa 0,0 l/m 0,0 km/h (0 Bft) SW 225 0 min -0,4 C 2,5 C 0,0 km/h (0 Bft)
03.02.2017 22:30 1,2 C 1,4 C 1,9 C 2,5 C 2,5 C 1,3 C 89 % 75 % 0 % 1008,3 hPa 0,0 l/m 0,0 km/h (0 Bft) SW 225 0 min -0,4 C 2,5 C 0,0 km/h (0 Bft)
03.02.2017 22:35 1,2 C 1,4 C 1,7 C 2,3 C 2,3 C 1,1 C 89 % 75 % 0 % 1008,3 hPa 0,0 l/m 0,0 km/h (0 Bft) SW 225 0 min -0,4 C 2,3 C 0,0 km/h (0 Bft)
03.02.2017 22:40 1,1 C 1,4 C 1,7 C 2,3 C 2,3 C 1,2 C 89 % 75 % 0 % 1008,8 hPa 0,0 l/m 0,0 km/h (0 Bft) O-NO 67 0 min -0,5 C 2,3 C 1,8 km/h (1 Bft)
03.02.2017 22:45 1,1 C 1,4 C 1,6 C 2,3 C 2,3 C 1,2 C 89 % 75 % 0 % 1008,8 hPa 0,0 l/m 0,0 km/h (0 Bft) O-NO 67 0 min -0,5 C 2,3 C 0,0 km/h (0 Bft)
03.02.2017 22:50 1,1 C 1,4 C 1,7 C 2,4 C 2,4 C 1,3 C 89 % 75 % 0 % 1008,8 hPa 0,0 l/m 0,2 km/h (0 Bft) O 90 0 min -0,5 C 2,4 C 0,0 km/h (0 Bft)
03.02.2017 22:55 1,2 C 1,4 C 1,8 C 2,5 C 2,5 C 1,3 C 89 % 75 % 0 % 1008,8 hPa 0,0 l/m 0,2 km/h (0 Bft) O-NO 67 0 min -0,4 C 2,5 C 0,0 km/h (0 Bft)
03.02.2017 23:00 1,1 C 1,4 C 1,7 C 2,5 C 2,5 C 1,4 C 89 % 75 % 0 % 1008,4 hPa 0,0 l/m 0,5 km/h (0 Bft) W-SW 247 0 min -0,5 C 2,5 C 0,0 km/h (0 Bft)
03.02.2017 23:05 1,1 C 1,4 C 1,6 C 2,3 C 2,3 C 1,2 C 89 % 75 % 0 % 1008,4 hPa 0,0 l/m 0,5 km/h (0 Bft) W-SW 247 0 min -0,5 C 2,3 C 0,0 km/h (0 Bft)
03.02.2017 23:10 0,9 C 1,4 C 1,6 C 2,2 C 2,2 C 1,3 C 89 % 75 % 0 % 1008,4 hPa 0,0 l/m 0,0 km/h (0 Bft) W-SW 247 0 min -0,7 C 2,2 C 0,0 km/h (0 Bft)
03.02.2017 23:15 0,8 C 1,4 C 1,6 C 2,1 C 2,1 C 1,3 C 89 % 75 % 0 % 1008,4 hPa 0,0 l/m 0,0 km/h (0 Bft) W-SW 247 0 min -0,8 C 2,1 C 0,0 km/h (0 Bft)
03.02.2017 23:20 0,8 C 1,4 C 1,6 C 2,0 C 2,0 C 1,2 C 89 % 75 % 0 % 1008,4 hPa 0,0 l/m 0,0 km/h (0 Bft) W-SW 247 0 min -0,8 C 2,0 C 0,0 km/h (0 Bft)
03.02.2017 23:25 0,9 C 1,4 C 1,5 C 2,0 C 2,0 C 1,1 C 89 % 75 % 0 % 1008,4 hPa 0,0 l/m 0,0 km/h (0 Bft) W-SW 247 0 min -0,7 C 2,0 C 0,0 km/h (0 Bft)
03.02.2017 23:30 0,8 C 1,4 C 1,5 C 2,1 C 2,1 C 1,3 C 89 % 75 % 0 % 1008,4 hPa 0,0 l/m 0,0 km/h (0 Bft) W-SW 247 0 min -0,8 C 2,1 C 0,0 km/h (0 Bft)
03.02.2017 23:35 0,8 C 1,4 C 1,5 C 2,2 C 2,2 C 1,4 C 89 % 75 % 0 % 1008,4 hPa 0,0 l/m 0,0 km/h (0 Bft) W-SW 247 0 min -0,8 C 2,2 C 0,0 km/h (0 Bft)
03.02.2017 23:40 0,9 C 1,4 C 1,5 C 2,2 C 2,2 C 1,3 C 89 % 75 % 0 % 1009,0 hPa 0,0 l/m 0,0 km/h (0 Bft) W-SW 247 0 min -0,7 C 2,2 C 0,0 km/h (0 Bft)
03.02.2017 23:45 0,8 C 1,4 C 1,5 C 2,1 C 2,1 C 1,3 C 89 % 75 % 0 % 1009,0 hPa 0,0 l/m 0,0 km/h (0 Bft) O 90 0 min -0,8 C 2,1 C 0,0 km/h (0 Bft)
03.02.2017 23:50 0,9 C 1,4 C 1,7 C 2,2 C 2,2 C 1,3 C 89 % 75 % 0 % 1009,0 hPa 0,0 l/m 0,5 km/h (0 Bft) O-NO 67 0 min -0,7 C 2,2 C 1,9 km/h (1 Bft)
03.02.2017 23:55 0,9 C 1,4 C 1,7 C 2,3 C 2,3 C 1,4 C 89 % 76 % 0 % 1009,0 hPa 0,0 l/m 1,1 km/h (1 Bft) O 90 0 min -0,7 C 2,3 C 0,0 km/h (0 Bft)
_ Min-Zeit 00:00 10:45 07:35 07:40 07:40 07:40 16:35 11:20 00:00 18:20 - 00:00 - - - 00:00 07:40 00:00
Minimum _ -0,8 C 1,2 C 0,0 C 0,2 C 0,2 C 0,7 C 88 % 74 % 0 % 1007,9 hPa - 0,0 km/h (0 Bft) - - - -2,4 C 0,2 C 0,0 km/h (0 Bft)
_ Max-Zeit 14:45 17:00 14:30 14:50 14:50 11:15 09:55 07:40 10:50 00:00 20:15 21:25 - - 07:55 14:45 14:50 12:05
Maximum _ 4,5 C 1,5 C 4,5 C 7,3 C 7,3 C 4,0 C 91 % 78 % 100 % 1010,9 hPa 0,7 l/m 1,8 km/h
O (1 Bft)
- - 5 min 3,0 C 7,3 C 3,2 km/h
SW (1 Bft)
Durchschnitt _ 1,4 C 1,3 C 1,9 C 3,2 C 3,2 C 1,8 C 89 % 76 % 25 % 1008,9 hPa #0,7 l/m 0,1 km/h (0 Bft) O - #4:40 h -0,2 C 3,2 C 0,1 km/h (0 Bft)
2017 www.wetterstation-wechselburg.de